createdAt,value
2019-06-27T00:00:01.679Z,25.40
2019-06-27T00:02:28.696Z,25.40
2019-06-27T00:04:55.581Z,25.40
2019-06-27T00:07:22.419Z,25.40
2019-06-27T00:09:50.115Z,25.40
2019-06-27T00:12:16.973Z,25.40
2019-06-27T00:14:43.818Z,25.40
2019-06-27T00:17:10.615Z,25.10
2019-06-27T00:19:37.450Z,25.00
2019-06-27T00:22:04.300Z,25.00
2019-06-27T00:24:31.095Z,24.90
2019-06-27T00:26:57.933Z,24.90
2019-06-27T00:29:24.728Z,24.90
2019-06-27T00:31:51.523Z,24.90
2019-06-27T00:34:18.366Z,24.90
2019-06-27T00:36:45.217Z,24.90
2019-06-27T00:39:12.003Z,24.80
2019-06-27T00:41:38.842Z,24.80
2019-06-27T00:44:05.647Z,24.80
2019-06-27T00:46:32.496Z,24.80
2019-06-27T00:48:59.291Z,24.80
2019-06-27T00:51:26.126Z,24.80
2019-06-27T00:53:52.944Z,24.70
2019-06-27T00:56:19.774Z,24.50
2019-06-27T00:58:47.284Z,24.40
2019-06-27T01:01:14.130Z,24.40
2019-06-27T01:03:40.919Z,24.40
2019-06-27T01:06:07.806Z,24.40
2019-06-27T01:08:34.608Z,24.40
2019-06-27T01:11:01.495Z,24.40
2019-06-27T01:13:28.336Z,24.40
2019-06-27T01:15:55.168Z,24.40
2019-06-27T01:18:22.015Z,24.50
2019-06-27T01:20:48.811Z,24.50
2019-06-27T01:23:15.648Z,24.50
2019-06-27T01:25:43.091Z,24.40
2019-06-27T01:28:09.888Z,24.40
2019-06-27T01:30:36.735Z,24.40
2019-06-27T01:33:03.538Z,24.40
2019-06-27T01:35:30.408Z,24.40
2019-06-27T01:37:57.199Z,24.40
2019-06-27T01:40:24.036Z,24.30
2019-06-27T01:42:50.875Z,24.30
2019-06-27T01:45:22.570Z,24.20
2019-06-27T01:47:49.365Z,24.20
2019-06-27T01:50:16.209Z,24.10
2019-06-27T01:52:43.059Z,24.10
2019-06-27T01:55:09.952Z,24.20
2019-06-27T01:57:47.006Z,24.20
2019-06-27T02:00:13.608Z,24.10
2019-06-27T02:02:40.490Z,24.00
2019-06-27T02:05:07.571Z,24.10
2019-06-27T02:07:34.568Z,24.10
2019-06-27T02:10:01.607Z,24.10
2019-06-27T02:12:28.457Z,24.00
2019-06-27T02:14:55.245Z,23.80
2019-06-27T02:17:22.090Z,23.80
2019-06-27T02:19:48.892Z,23.70
2019-06-27T02:22:15.737Z,23.60
2019-06-27T02:24:42.526Z,23.60
2019-06-27T02:27:09.387Z,23.50
2019-06-27T02:29:36.223Z,23.40
2019-06-27T02:32:03.042Z,23.50
2019-06-27T02:34:29.885Z,23.40
2019-06-27T02:36:56.738Z,23.50
2019-06-27T02:39:23.532Z,23.50
2019-06-27T02:41:50.329Z,23.50
2019-06-27T02:44:17.175Z,23.50
2019-06-27T02:46:43.964Z,23.40
2019-06-27T02:49:10.756Z,23.40
2019-06-27T02:51:37.609Z,23.30
2019-06-27T02:54:04.438Z,23.10
2019-06-27T02:56:31.269Z,23.10
2019-06-27T02:58:58.068Z,22.90
2019-06-27T03:01:24.963Z,22.80
2019-06-27T03:03:51.768Z,22.80
2019-06-27T03:06:18.561Z,22.90
2019-06-27T03:08:45.407Z,22.90
2019-06-27T03:11:13.298Z,23.00
2019-06-27T03:13:40.139Z,23.00
2019-06-27T03:16:06.943Z,23.10
2019-06-27T03:18:33.816Z,23.10
2019-06-27T03:21:00.607Z,23.20
2019-06-27T03:23:27.651Z,23.20
2019-06-27T03:25:54.503Z,23.30
2019-06-27T03:28:21.285Z,23.20
2019-06-27T03:30:48.133Z,23.10
2019-06-27T03:33:14.919Z,23.00
2019-06-27T03:35:41.760Z,23.00
2019-06-27T03:38:08.853Z,23.00
2019-06-27T03:40:35.695Z,22.90
2019-06-27T03:43:02.492Z,22.90
2019-06-27T03:45:29.332Z,23.00
2019-06-27T03:47:56.141Z,22.90
2019-06-27T03:50:22.962Z,22.90
2019-06-27T03:52:49.812Z,22.80
2019-06-27T03:55:16.686Z,22.60
2019-06-27T03:57:45.357Z,22.60
2019-06-27T04:00:19.255Z,22.70
2019-06-27T04:02:46.163Z,22.70
2019-06-27T04:05:12.963Z,22.70
2019-06-27T04:07:39.809Z,22.80
2019-06-27T04:10:06.611Z,22.80
2019-06-27T04:12:33.638Z,22.80
2019-06-27T04:15:00.481Z,22.90
2019-06-27T04:17:27.272Z,23.00
2019-06-27T04:19:54.113Z,23.00
2019-06-27T04:22:20.916Z,23.00
2019-06-27T04:24:47.772Z,23.10
2019-06-27T04:27:14.588Z,23.20
2019-06-27T04:29:41.450Z,23.10
2019-06-27T04:32:08.294Z,23.10
2019-06-27T04:34:35.412Z,23.10
2019-06-27T04:37:02.269Z,23.00
2019-06-27T04:39:29.139Z,23.10
2019-06-27T04:41:55.945Z,23.10
2019-06-27T04:44:22.816Z,23.20
2019-06-27T04:46:49.642Z,23.30
2019-06-27T04:49:16.487Z,23.50
2019-06-27T04:51:43.336Z,23.50
2019-06-27T04:54:10.134Z,23.60
2019-06-27T04:56:36.972Z,23.80
2019-06-27T04:59:03.823Z,23.80
2019-06-27T05:01:30.648Z,23.90
2019-06-27T05:03:57.494Z,23.90
2019-06-27T05:06:24.298Z,23.90
2019-06-27T05:08:51.159Z,23.90
2019-06-27T05:11:18.005Z,24.00
2019-06-27T05:13:44.794Z,24.10
2019-06-27T05:16:11.587Z,24.20
2019-06-27T05:18:38.434Z,24.50
2019-06-27T05:21:05.297Z,24.50
2019-06-27T05:23:32.107Z,24.80
2019-06-27T05:25:58.955Z,24.90
2019-06-27T05:28:25.751Z,25.10
2019-06-27T05:30:52.607Z,25.40
2019-06-27T05:33:19.437Z,25.60
2019-06-27T05:35:46.539Z,25.70
2019-06-27T05:38:13.393Z,25.70
2019-06-27T05:40:40.232Z,25.90
2019-06-27T05:43:07.081Z,25.90
2019-06-27T05:45:33.879Z,25.80
2019-06-27T05:48:00.709Z,25.70
2019-06-27T05:50:27.618Z,25.70
2019-06-27T05:52:54.459Z,26.00
2019-06-27T05:55:21.246Z,26.10
2019-06-27T05:57:48.088Z,26.00
2019-06-27T06:00:27.260Z,26.20
2019-06-27T06:02:44.355Z,26.10
2019-06-27T06:05:11.178Z,26.30
2019-06-27T06:07:38.018Z,26.60
2019-06-27T06:10:05.259Z,26.80
2019-06-27T06:12:32.051Z,26.90
2019-06-27T06:14:58.846Z,26.80
2019-06-27T06:17:25.679Z,27.00
2019-06-27T06:19:52.570Z,27.30
2019-06-27T06:22:19.396Z,27.50
2019-06-27T06:24:46.197Z,27.70
2019-06-27T06:27:13.019Z,27.90
2019-06-27T06:29:39.850Z,28.00
2019-06-27T06:32:06.631Z,27.90
2019-06-27T06:34:33.494Z,28.00
2019-06-27T06:37:00.301Z,27.90
2019-06-27T06:39:27.072Z,28.10
2019-06-27T06:41:53.925Z,28.30
2019-06-27T06:44:20.757Z,28.70
2019-06-27T06:46:47.971Z,28.90
2019-06-27T06:49:14.873Z,29.20
2019-06-27T06:51:41.662Z,29.40
2019-06-27T06:54:08.504Z,29.30
2019-06-27T06:56:35.341Z,29.40
2019-06-27T06:59:02.127Z,29.30
2019-06-27T07:01:28.980Z,29.60
2019-06-27T07:03:55.823Z,29.80
2019-06-27T07:06:22.722Z,30.00
2019-06-27T07:08:49.557Z,30.10
2019-06-27T07:11:16.648Z,29.80
2019-06-27T07:13:43.494Z,29.70
2019-06-27T07:16:10.282Z,30.00
2019-06-27T07:18:37.141Z,30.40
2019-06-27T07:21:03.990Z,30.80
2019-06-27T07:23:30.780Z,31.20
2019-06-27T07:25:57.676Z,31.30
2019-06-27T07:28:24.462Z,31.50
2019-06-27T07:30:51.296Z,31.60
2019-06-27T07:33:18.081Z,31.60
2019-06-27T07:35:44.932Z,31.60
2019-06-27T07:38:12.414Z,31.70
2019-06-27T07:40:39.252Z,31.60
2019-06-27T07:43:06.092Z,31.60
2019-06-27T07:45:32.931Z,31.70
2019-06-27T07:47:59.757Z,31.80
2019-06-27T07:50:26.552Z,31.90
2019-06-27T07:52:53.394Z,31.90
2019-06-27T07:55:22.185Z,31.90
2019-06-27T07:57:49.079Z,32.00
2019-06-27T08:00:19.525Z,32.00
2019-06-27T08:02:46.398Z,31.80
2019-06-27T08:05:13.333Z,31.40
2019-06-27T08:07:40.306Z,31.40
2019-06-27T08:10:07.619Z,31.30
2019-06-27T08:12:34.417Z,31.20
2019-06-27T08:15:01.263Z,31.10
2019-06-27T08:17:28.102Z,31.10
2019-06-27T08:19:54.882Z,31.10
2019-06-27T08:22:21.722Z,31.20
2019-06-27T08:24:48.606Z,31.30
2019-06-27T08:27:15.438Z,31.40
2019-06-27T08:29:42.220Z,31.40
2019-06-27T08:32:09.005Z,31.40
2019-06-27T08:34:35.850Z,31.40
2019-06-27T08:37:02.645Z,31.40
2019-06-27T08:39:29.437Z,31.30
2019-06-27T08:41:56.309Z,31.30
2019-06-27T08:44:23.126Z,31.40
2019-06-27T08:46:49.890Z,31.20
2019-06-27T08:49:16.720Z,31.10
2019-06-27T08:51:43.553Z,31.20
2019-06-27T08:54:10.398Z,31.20
2019-06-27T08:56:37.197Z,31.30
2019-06-27T08:59:04.128Z,31.60
2019-06-27T09:01:30.913Z,31.80
2019-06-27T09:03:57.869Z,32.00
2019-06-27T09:06:24.666Z,32.30
2019-06-27T09:08:51.454Z,32.40
2019-06-27T09:11:18.287Z,32.30
2019-06-27T09:13:45.120Z,32.20
2019-06-27T09:16:11.913Z,32.30
2019-06-27T09:18:38.714Z,32.20
2019-06-27T09:21:05.785Z,32.10
2019-06-27T09:23:32.574Z,32.20
2019-06-27T09:25:59.365Z,32.20
2019-06-27T09:28:26.238Z,32.30
2019-06-27T09:30:53.073Z,32.30
2019-06-27T09:33:20.508Z,32.20
2019-06-27T09:35:47.302Z,32.10
2019-06-27T09:38:14.134Z,32.20
2019-06-27T09:40:40.925Z,32.50
2019-06-27T09:43:07.720Z,32.30
2019-06-27T09:45:34.557Z,32.20
2019-06-27T09:48:01.345Z,32.30
2019-06-27T09:50:28.181Z,32.30
2019-06-27T09:52:54.976Z,32.50
2019-06-27T09:55:22.008Z,32.70
2019-06-27T09:57:48.798Z,32.70
2019-06-27T10:00:17.948Z,32.70
2019-06-27T10:02:51.695Z,32.70
2019-06-27T10:05:18.536Z,32.60
2019-06-27T10:07:45.339Z,32.50
2019-06-27T10:10:12.629Z,32.70
2019-06-27T10:12:42.755Z,32.80
2019-06-27T10:15:08.271Z,32.70
2019-06-27T10:17:35.053Z,32.60
2019-06-27T10:20:03.634Z,32.50
2019-06-27T10:22:30.397Z,32.60
2019-06-27T10:24:57.220Z,32.70
2019-06-27T10:27:24.056Z,32.80
2019-06-27T10:29:50.896Z,32.70
2019-06-27T10:32:17.677Z,32.60
2019-06-27T10:34:44.517Z,32.70
2019-06-27T10:37:11.316Z,32.60
2019-06-27T10:39:38.150Z,32.60
2019-06-27T10:42:05.090Z,32.60
2019-06-27T10:44:31.887Z,32.80
2019-06-27T10:46:58.735Z,32.60
2019-06-27T10:49:25.510Z,32.60
2019-06-27T10:51:52.820Z,32.30
2019-06-27T10:54:19.643Z,32.30
2019-06-27T10:56:46.437Z,32.50
2019-06-27T10:59:13.287Z,32.90
2019-06-27T11:01:40.957Z,33.10
2019-06-27T11:04:07.747Z,33.00
2019-06-27T11:06:34.606Z,33.10
2019-06-27T11:09:01.445Z,33.20
2019-06-27T11:11:28.280Z,33.30
2019-06-27T11:13:59.234Z,33.30
2019-06-27T11:16:24.535Z,33.20
2019-06-27T11:18:51.362Z,33.40
2019-06-27T11:21:18.228Z,33.60
2019-06-27T11:23:45.033Z,33.70
2019-06-27T11:26:11.977Z,33.90
2019-06-27T11:28:38.770Z,33.90
2019-06-27T11:31:05.622Z,34.00
2019-06-27T11:33:33.312Z,33.80
2019-06-27T11:36:00.157Z,33.70
2019-06-27T11:38:27.006Z,33.80
2019-06-27T11:40:53.793Z,33.90
2019-06-27T11:43:20.658Z,34.10
2019-06-27T11:45:47.465Z,34.10
2019-06-27T11:48:14.293Z,34.20
2019-06-27T11:50:41.084Z,34.20
2019-06-27T11:53:07.929Z,34.20
2019-06-27T11:55:34.734Z,34.10
2019-06-27T11:58:01.582Z,34.10
2019-06-27T12:00:29.051Z,34.10
2019-06-27T12:02:56.400Z,34.10
2019-06-27T12:05:23.234Z,34.20
2019-06-27T12:07:50.056Z,34.20
2019-06-27T12:10:17.580Z,34.30
2019-06-27T12:12:44.374Z,34.10
2019-06-27T12:15:11.357Z,33.90
2019-06-27T12:17:38.150Z,34.00
2019-06-27T12:20:06.806Z,34.20
2019-06-27T12:22:33.694Z,34.20
2019-06-27T12:25:00.569Z,34.00
2019-06-27T12:27:28.361Z,33.90
2019-06-27T12:29:55.202Z,34.10
2019-06-27T12:32:22.042Z,34.20
2019-06-27T12:34:50.075Z,34.20
2019-06-27T12:37:16.855Z,34.20
2019-06-27T12:39:43.702Z,34.10
2019-06-27T12:42:11.529Z,34.20
2019-06-27T12:44:38.348Z,34.20
2019-06-27T12:47:05.167Z,34.10
2019-06-27T12:49:56.532Z,34.20
2019-06-27T12:52:00.904Z,34.30
2019-06-27T12:54:28.343Z,34.50
2019-06-27T12:56:55.381Z,34.50
2019-06-27T12:59:23.287Z,34.50
2019-06-27T13:01:50.682Z,34.30
2019-06-27T13:04:37.336Z,34.30
2019-06-27T13:07:04.371Z,34.60
2019-06-27T13:09:31.163Z,34.50
2019-06-27T13:11:58.134Z,34.40
2019-06-27T13:14:24.910Z,34.70
2019-06-27T13:16:51.737Z,35.00
2019-06-27T13:19:18.592Z,35.20
2019-06-27T13:21:45.950Z,35.50
2019-06-27T13:24:12.740Z,35.70
2019-06-27T13:26:39.655Z,35.90
2019-06-27T13:29:06.452Z,36.00
2019-06-27T13:31:33.297Z,36.00
2019-06-27T13:34:00.134Z,36.00
2019-06-27T13:36:26.936Z,35.90
2019-06-27T13:38:53.727Z,35.90
2019-06-27T13:41:20.649Z,35.70
2019-06-27T13:43:49.481Z,35.70
2019-06-27T13:46:16.294Z,35.60
2019-06-27T13:48:43.186Z,35.40
2019-06-27T13:51:09.937Z,35.30
2019-06-27T13:53:36.768Z,35.60
2019-06-27T13:56:03.573Z,35.80
2019-06-27T13:58:30.416Z,35.80
2019-06-27T14:00:58.299Z,36.00
2019-06-27T14:03:25.090Z,35.40
2019-06-27T14:05:59.546Z,34.90
2019-06-27T14:08:26.476Z,34.40
2019-06-27T14:10:53.426Z,34.60
2019-06-27T14:13:20.425Z,34.80
2019-06-27T14:15:47.261Z,34.80
2019-06-27T14:18:14.102Z,34.70
2019-06-27T14:20:40.900Z,34.60
2019-06-27T14:23:07.743Z,34.70
2019-06-27T14:25:34.536Z,34.50
2019-06-27T14:28:01.382Z,34.40
2019-06-27T14:30:28.186Z,34.40
2019-06-27T14:32:54.989Z,34.20
2019-06-27T14:35:21.825Z,34.10
2019-06-27T14:37:48.706Z,34.10
2019-06-27T14:40:15.905Z,34.00
2019-06-27T14:42:42.698Z,34.00
2019-06-27T14:45:09.633Z,34.10
2019-06-27T14:47:36.429Z,34.00
2019-06-27T14:50:04.186Z,33.80
2019-06-27T14:52:34.697Z,33.80
2019-06-27T14:54:59.758Z,33.80
2019-06-27T14:57:26.565Z,34.00
2019-06-27T14:59:53.396Z,34.20
2019-06-27T15:02:20.213Z,34.20
2019-06-27T15:04:47.041Z,34.10
2019-06-27T15:07:13.917Z,34.10
2019-06-27T15:09:40.722Z,34.10
2019-06-27T15:12:08.284Z,34.10
2019-06-27T15:14:35.083Z,33.90
2019-06-27T15:17:01.921Z,33.90
2019-06-27T15:19:28.722Z,33.90
2019-06-27T15:21:55.564Z,33.80
2019-06-27T15:24:22.354Z,33.70
2019-06-27T15:26:49.186Z,33.70
2019-06-27T15:29:15.997Z,33.50
2019-06-27T15:31:42.843Z,33.30
2019-06-27T15:34:09.737Z,33.20
2019-06-27T15:36:36.609Z,33.30
2019-06-27T15:39:05.102Z,33.30
2019-06-27T15:41:31.950Z,33.20
2019-06-27T15:43:59.338Z,32.90
2019-06-27T15:46:26.180Z,32.70
2019-06-27T15:48:52.962Z,32.70
2019-06-27T15:51:19.805Z,32.60
2019-06-27T15:53:46.637Z,32.60
2019-06-27T15:56:13.647Z,32.50
2019-06-27T15:58:40.493Z,32.20
2019-06-27T16:01:07.333Z,32.10
2019-06-27T16:03:34.180Z,32.00
2019-06-27T16:06:09.528Z,32.00
2019-06-27T16:08:29.660Z,32.00
2019-06-27T16:10:56.510Z,32.00
2019-06-27T16:13:23.374Z,31.90
2019-06-27T16:15:50.206Z,31.60
2019-06-27T16:18:17.241Z,31.50
2019-06-27T16:20:44.082Z,31.50
2019-06-27T16:23:10.929Z,31.50
2019-06-27T16:25:37.718Z,31.50
2019-06-27T16:28:04.557Z,31.50
2019-06-27T16:30:31.394Z,31.70
2019-06-27T16:32:58.182Z,31.50
2019-06-27T16:35:25.025Z,31.30
2019-06-27T16:37:51.809Z,31.20
2019-06-27T16:40:18.717Z,31.10
2019-06-27T16:42:45.562Z,31.30
2019-06-27T16:45:12.800Z,31.20
2019-06-27T16:47:39.585Z,31.30
2019-06-27T16:50:06.877Z,31.30
2019-06-27T16:52:33.787Z,31.30
2019-06-27T16:55:01.365Z,31.30
2019-06-27T16:57:28.144Z,31.20
2019-06-27T16:59:55.034Z,31.00
2019-06-27T17:02:21.851Z,31.10
2019-06-27T17:04:48.718Z,31.30
2019-06-27T17:07:15.608Z,31.20
2019-06-27T17:09:42.524Z,31.10
2019-06-27T17:12:09.465Z,31.00
2019-06-27T17:14:36.238Z,30.90
2019-06-27T17:17:03.198Z,30.80
2019-06-27T17:19:29.991Z,30.80
2019-06-27T17:21:56.825Z,30.70
2019-06-27T17:24:23.714Z,30.70
2019-06-27T17:26:50.501Z,30.60
2019-06-27T17:29:17.366Z,30.50
2019-06-27T17:31:44.220Z,30.50
2019-06-27T17:34:14.011Z,30.60
2019-06-27T17:36:39.952Z,30.50
2019-06-27T17:39:06.811Z,30.40
2019-06-27T17:41:33.598Z,30.30
2019-06-27T17:44:00.442Z,30.10
2019-06-27T17:46:27.234Z,30.00
2019-06-27T17:48:56.955Z,30.00
2019-06-27T17:51:23.751Z,29.90
2019-06-27T17:53:50.580Z,29.90
2019-06-27T17:56:17.537Z,29.90
2019-06-27T17:58:44.381Z,30.00
2019-06-27T18:01:14.558Z,30.00
2019-06-27T18:03:41.415Z,30.00
2019-06-27T18:06:08.283Z,29.90
2019-06-27T18:08:35.170Z,29.80
2019-06-27T18:11:01.954Z,29.80
2019-06-27T18:13:28.840Z,29.70
2019-06-27T18:15:55.617Z,29.60
2019-06-27T18:18:22.461Z,29.60
2019-06-27T18:20:49.306Z,29.50
2019-06-27T18:23:16.094Z,29.40
2019-06-27T18:25:42.981Z,29.40
2019-06-27T18:28:09.771Z,29.40
2019-06-27T18:30:36.624Z,29.40
2019-06-27T18:33:03.767Z,29.30
2019-06-27T18:35:30.572Z,29.30
2019-06-27T18:37:57.524Z,29.20
2019-06-27T18:40:24.829Z,29.10
2019-06-27T18:42:51.630Z,29.10
2019-06-27T18:45:18.460Z,29.10
2019-06-27T18:47:45.579Z,29.00
2019-06-27T18:50:12.866Z,28.80
2019-06-27T18:52:39.701Z,28.80
2019-06-27T18:55:06.837Z,28.70
2019-06-27T18:57:33.682Z,28.60
2019-06-27T19:00:00.518Z,28.50
2019-06-27T19:02:27.832Z,28.40
2019-06-27T19:04:54.631Z,28.30
2019-06-27T19:07:21.487Z,28.20
2019-06-27T19:09:48.383Z,28.20
2019-06-27T19:12:16.124Z,28.20
2019-06-27T19:14:43.919Z,28.10
2019-06-27T19:17:10.749Z,28.00
2019-06-27T19:19:54.544Z,27.90
2019-06-27T19:22:39.837Z,27.90
2019-06-27T19:25:08.130Z,27.80
2019-06-27T19:27:34.966Z,27.80
2019-06-27T19:30:02.607Z,27.70
2019-06-27T19:32:29.460Z,27.60
2019-06-27T19:34:56.250Z,27.40
2019-06-27T19:37:23.053Z,27.50
2019-06-27T19:39:49.898Z,27.50
2019-06-27T19:42:16.695Z,27.30
2019-06-27T19:44:43.547Z,27.20
2019-06-27T19:47:10.365Z,27.10
2019-06-27T19:49:37.475Z,27.10
2019-06-27T19:52:04.661Z,26.90
2019-06-27T19:54:31.455Z,26.90
2019-06-27T19:56:58.294Z,26.80
2019-06-27T19:59:25.410Z,26.70
2019-06-27T20:01:52.287Z,26.70
2019-06-27T20:04:19.129Z,26.70
2019-06-27T20:06:45.923Z,26.60
2019-06-27T20:09:12.763Z,26.50
2019-06-27T20:11:39.652Z,26.50
2019-06-27T20:14:06.875Z,26.40
2019-06-27T20:16:33.644Z,26.30
2019-06-27T20:19:00.453Z,26.20
2019-06-27T20:21:27.293Z,26.10
2019-06-27T20:23:54.082Z,26.00
2019-06-27T20:26:20.868Z,25.90
2019-06-27T20:28:47.713Z,26.00
2019-06-27T20:31:14.514Z,25.90
2019-06-27T20:33:41.359Z,25.80
2019-06-27T20:36:08.197Z,25.80
2019-06-27T20:38:35.546Z,25.60
2019-06-27T20:41:02.523Z,25.50
2019-06-27T20:43:29.316Z,25.40
2019-06-27T20:45:56.166Z,25.30
2019-06-27T20:48:23.309Z,25.30
2019-06-27T20:50:50.462Z,25.20
2019-06-27T20:53:17.262Z,25.20
2019-06-27T20:55:44.102Z,25.20
2019-06-27T20:58:10.907Z,25.20
2019-06-27T21:00:38.514Z,25.20
2019-06-27T21:03:05.273Z,25.20
2019-06-27T21:05:32.217Z,25.20
2019-06-27T21:07:59.025Z,25.00
2019-06-27T21:10:25.856Z,24.90
2019-06-27T21:12:52.711Z,24.80
2019-06-27T21:15:19.657Z,24.60
2019-06-27T21:17:46.434Z,24.50
2019-06-27T21:20:13.572Z,24.40
2019-06-27T21:22:41.112Z,24.40
2019-06-27T21:25:08.254Z,24.40
2019-06-27T21:27:35.039Z,24.40
2019-06-27T21:30:01.902Z,24.30
2019-06-27T21:32:31.724Z,24.20
2019-06-27T21:34:57.430Z,24.10
2019-06-27T21:37:24.225Z,24.10
2019-06-27T21:39:51.073Z,24.20
2019-06-27T21:42:18.796Z,24.20
2019-06-27T21:44:45.638Z,24.10
2019-06-27T21:47:12.517Z,24.00
2019-06-27T21:49:39.350Z,24.00
2019-06-27T21:52:06.135Z,23.90
2019-06-27T21:54:32.970Z,23.80
2019-06-27T21:56:59.811Z,23.80
2019-06-27T21:59:26.612Z,23.70
2019-06-27T22:01:53.439Z,23.70
2019-06-27T22:04:33.696Z,23.70
2019-06-27T22:07:00.562Z,23.60
2019-06-27T22:09:27.397Z,23.50
2019-06-27T22:11:54.230Z,23.40
2019-06-27T22:14:21.017Z,23.30
2019-06-27T22:16:47.857Z,23.30
2019-06-27T22:19:14.701Z,23.20
2019-06-27T22:21:41.541Z,23.10
2019-06-27T22:24:08.339Z,23.00
2019-06-27T22:26:35.219Z,23.00
2019-06-27T22:29:01.994Z,23.10
2019-06-27T22:31:28.846Z,23.10
2019-06-27T22:33:55.632Z,23.10
2019-06-27T22:36:22.481Z,23.10
2019-06-27T22:39:07.514Z,23.00
2019-06-27T22:41:52.757Z,22.90
2019-06-27T22:44:38.071Z,22.90
2019-06-27T22:47:23.428Z,22.90
2019-06-27T22:49:50.864Z,22.80
2019-06-27T22:52:25.786Z,22.80
2019-06-27T22:54:58.125Z,22.70
2019-06-27T22:57:24.919Z,22.60
2019-06-27T22:59:51.817Z,22.40
2019-06-27T23:02:18.593Z,22.40
2019-06-27T23:04:45.498Z,22.40
2019-06-27T23:07:12.278Z,22.40
2019-06-27T23:09:39.117Z,22.50
2019-06-27T23:12:05.918Z,22.60
2019-06-27T23:14:32.759Z,22.50
2019-06-27T23:16:59.605Z,22.40
2019-06-27T23:19:26.392Z,22.40
2019-06-27T23:21:53.277Z,22.40
2019-06-27T23:24:20.073Z,22.40
2019-06-27T23:26:46.897Z,22.40
2019-06-27T23:29:13.690Z,22.40
2019-06-27T23:31:40.535Z,22.10
2019-06-27T23:34:07.331Z,22.10
2019-06-27T23:36:34.145Z,21.90
2019-06-27T23:39:00.938Z,21.90
2019-06-27T23:41:27.773Z,21.90
2019-06-27T23:43:54.618Z,22.00
2019-06-27T23:46:41.057Z,21.90
2019-06-27T23:49:08.906Z,21.70
2019-06-27T23:51:35.695Z,21.70
2019-06-27T23:54:02.537Z,21.70
2019-06-27T23:56:29.329Z,21.60
2019-06-27T23:58:56.170Z,21.60
